Time,TemperatureF,DewpointF,PressureIn,WindDirection,WindDirectionDegrees,WindSpeedMPH,WindSpeedGustMPH,Humidity,HourlyPrecipIn,Conditions,Clouds,dailyrainin,SoftwareType,DateUTC
2013-07-07 00:01:00,74.8,70.7,30.18,East,101,0.0,0.0,87,0.00,,,0.00,meteohub,2013-07-07 04:01:00,
2013-07-07 00:02:00,74.8,70.3,30.18,East,101,0.0,0.0,86,0.00,,,0.00,meteohub,2013-07-07 04:02:00,
2013-07-07 00:03:00,74.7,70.2,30.18,East,101,0.0,0.0,86,0.00,,,0.00,meteohub,2013-07-07 04:03:00,
2013-07-07 00:04:00,74.7,70.2,30.18,East,101,0.0,0.0,86,0.00,,,0.00,meteohub,2013-07-07 04:04:00,
2013-07-07 00:09:00,74.5,70.0,30.18,East,101,0.0,0.0,86,0.00,,,0.00,meteohub,2013-07-07 04:09:00,
2013-07-07 00:14:00,74.3,69.8,30.19,East,101,0.0,0.0,86,0.00,,,0.00,meteohub,2013-07-07 04:14:00,
2013-07-07 00:19:00,74.1,69.6,30.18,East,101,0.0,0.0,86,0.00,,,0.00,meteohub,2013-07-07 04:19:00,
2013-07-07 00:24:00,74.1,70.0,30.18,East,101,0.0,0.0,87,0.00,,,0.00,meteohub,2013-07-07 04:24:00,
2013-07-07 00:29:00,73.9,69.8,30.18,East,101,0.0,0.0,87,0.00,,,0.00,meteohub,2013-07-07 04:29:00,
2013-07-07 00:35:00,73.9,69.8,30.18,East,101,0.0,0.0,87,0.00,,,0.00,meteohub,2013-07-07 04:35:00,
2013-07-07 00:40:00,73.8,69.6,30.18,East,101,0.0,0.0,87,0.00,,,0.00,meteohub,2013-07-07 04:40:00,
2013-07-07 00:45:00,73.8,69.6,30.17,East,101,0.0,0.0,87,0.00,,,0.00,meteohub,2013-07-07 04:45:00,
2013-07-07 00:50:00,73.8,69.6,30.17,East,101,0.0,0.0,87,0.00,,,0.00,meteohub,2013-07-07 04:50:00,
2013-07-07 00:55:00,73.6,69.4,30.17,East,101,0.0,0.0,87,0.00,,,0.00,meteohub,2013-07-07 04:55:00,
2013-07-07 01:00:00,73.6,69.4,30.17,East,101,0.0,0.0,87,0.00,,,0.00,meteohub,2013-07-07 05:00:00,
2013-07-07 01:06:00,73.4,69.3,30.18,East,101,0.0,0.0,87,0.00,,,0.00,meteohub,2013-07-07 05:06:00,
2013-07-07 01:11:00,73.4,69.3,30.18,East,101,0.0,0.0,87,0.00,,,0.00,meteohub,2013-07-07 05:11:00,
2013-07-07 01:16:00,73.2,69.1,30.18,East,101,0.0,0.0,87,0.00,,,0.00,meteohub,2013-07-07 05:16:00,
2013-07-07 01:21:00,73.0,69.3,30.18,East,101,0.0,0.0,88,0.00,,,0.00,meteohub,2013-07-07 05:21:00,
2013-07-07 01:26:00,73.0,69.3,30.18,East,101,0.0,0.0,88,0.00,,,0.00,meteohub,2013-07-07 05:26:00,
2013-07-07 01:32:00,72.9,69.1,30.18,East,101,0.0,0.0,88,0.00,,,0.00,meteohub,2013-07-07 05:32:00,
2013-07-07 01:37:00,72.9,69.1,30.18,East,101,0.0,0.0,88,0.00,,,0.00,meteohub,2013-07-07 05:37:00,
2013-07-07 01:42:00,72.9,69.1,30.17,East,101,0.0,0.0,88,0.00,,,0.00,meteohub,2013-07-07 05:42:00,
2013-07-07 01:47:00,72.7,69.3,30.17,East,101,0.0,0.0,89,0.00,,,0.00,meteohub,2013-07-07 05:47:00,
2013-07-07 01:52:00,72.7,69.3,30.17,East,101,0.0,0.0,89,0.00,,,0.00,meteohub,2013-07-07 05:52:00,
2013-07-07 01:57:00,72.3,68.9,30.17,East,101,0.0,0.0,89,0.00,,,0.00,meteohub,2013-07-07 05:57:00,
2013-07-07 02:02:00,72.3,68.9,30.17,East,101,0.0,0.0,89,0.00,,,0.00,meteohub,2013-07-07 06:02:00,
2013-07-07 02:07:00,72.1,68.7,30.17,East,101,0.0,0.0,89,0.00,,,0.00,meteohub,2013-07-07 06:07:00,
2013-07-07 02:12:00,72.1,69.1,30.17,East,101,0.0,0.0,90,0.00,,,0.00,meteohub,2013-07-07 06:12:00,
2013-07-07 02:17:00,72.1,69.1,30.17,East,101,0.0,0.0,90,0.00,,,0.00,meteohub,2013-07-07 06:17:00,
2013-07-07 02:22:00,72.0,68.9,30.16,East,101,0.0,0.0,90,0.00,,,0.00,meteohub,2013-07-07 06:22:00,
2013-07-07 02:27:00,72.0,68.9,30.16,East,101,0.0,0.0,90,0.00,,,0.00,meteohub,2013-07-07 06:27:00,
2013-07-07 02:32:00,72.0,68.9,30.16,East,101,0.0,0.0,90,0.00,,,0.00,meteohub,2013-07-07 06:32:00,
2013-07-07 02:37:00,72.0,68.9,30.16,East,101,0.0,0.0,90,0.00,,,0.00,meteohub,2013-07-07 06:37:00,
2013-07-07 02:42:00,71.8,68.7,30.16,East,101,0.0,0.0,90,0.00,,,0.00,meteohub,2013-07-07 06:42:00,
2013-07-07 02:47:00,71.8,69.1,30.16,East,101,0.0,0.0,91,0.00,,,0.00,meteohub,2013-07-07 06:47:00,
2013-07-07 02:52:00,71.6,68.9,30.16,East,101,0.0,0.0,91,0.00,,,0.00,meteohub,2013-07-07 06:52:00,
2013-07-07 02:57:00,71.4,68.7,30.16,East,101,0.0,0.0,91,0.00,,,0.00,meteohub,2013-07-07 06:57:00,
2013-07-07 03:02:00,71.2,68.5,30.15,East,101,0.0,0.0,91,0.00,,,0.00,meteohub,2013-07-07 07:02:00,
2013-07-07 03:07:00,71.2,68.7,30.15,East,101,0.0,0.0,92,0.00,,,0.00,meteohub,2013-07-07 07:07:00,
2013-07-07 03:12:00,71.2,68.7,30.15,East,101,0.0,0.0,92,0.00,,,0.00,meteohub,2013-07-07 07:12:00,
2013-07-07 03:17:00,71.1,68.5,30.15,East,101,0.0,0.0,92,0.00,,,0.00,meteohub,2013-07-07 07:17:00,
2013-07-07 03:23:00,71.1,68.5,30.15,East,101,0.0,0.0,92,0.00,,,0.00,meteohub,2013-07-07 07:23:00,
2013-07-07 03:28:00,71.1,68.5,30.15,East,101,0.0,0.0,92,0.00,,,0.00,meteohub,2013-07-07 07:28:00,
2013-07-07 03:33:00,70.9,68.7,30.15,East,101,0.0,0.0,93,0.00,,,0.00,meteohub,2013-07-07 07:33:00,
2013-07-07 03:38:00,70.7,68.5,30.15,East,101,0.0,0.0,93,0.00,,,0.00,meteohub,2013-07-07 07:38:00,
2013-07-07 03:43:00,70.5,68.4,30.15,East,101,0.0,0.0,93,0.00,,,0.00,meteohub,2013-07-07 07:43:00,
2013-07-07 03:48:00,70.5,68.4,30.15,East,101,0.0,0.0,93,0.00,,,0.00,meteohub,2013-07-07 07:48:00,
2013-07-07 03:53:00,70.3,68.5,30.15,East,101,0.0,0.0,94,0.00,,,0.00,meteohub,2013-07-07 07:53:00,
2013-07-07 03:58:00,70.3,68.5,30.15,East,101,0.0,0.0,94,0.00,,,0.00,meteohub,2013-07-07 07:58:00,
2013-07-07 04:03:00,70.3,68.5,30.15,East,101,0.0,0.0,94,0.00,,,0.00,meteohub,2013-07-07 08:03:00,
2013-07-07 04:08:00,70.2,68.4,30.14,East,101,0.0,0.0,94,0.00,,,0.00,meteohub,2013-07-07 08:08:00,
2013-07-07 04:13:00,70.2,68.4,30.15,East,101,0.0,0.0,94,0.00,,,0.00,meteohub,2013-07-07 08:13:00,
2013-07-07 04:18:00,70.2,68.4,30.15,East,101,0.0,0.0,94,0.00,,,0.00,meteohub,2013-07-07 08:18:00,
2013-07-07 04:23:00,70.2,68.7,30.15,East,101,0.0,0.0,95,0.00,,,0.00,meteohub,2013-07-07 08:23:00,
2013-07-07 04:29:00,70.2,68.7,30.15,East,101,0.0,0.0,95,0.00,,,0.00,meteohub,2013-07-07 08:29:00,
2013-07-07 04:34:00,70.2,68.7,30.15,East,101,0.0,0.0,95,0.00,,,0.00,meteohub,2013-07-07 08:34:00,
2013-07-07 04:39:00,70.2,68.7,30.15,East,101,0.0,0.0,95,0.00,,,0.00,meteohub,2013-07-07 08:39:00,
2013-07-07 04:44:00,70.0,68.5,30.15,East,101,0.0,0.0,95,0.00,,,0.00,meteohub,2013-07-07 08:44:00,
2013-07-07 04:50:00,70.0,68.5,30.15,East,101,0.0,0.0,95,0.00,,,0.00,meteohub,2013-07-07 08:50:00,
2013-07-07 04:55:00,70.0,68.5,30.15,East,101,0.0,0.0,95,0.00,,,0.00,meteohub,2013-07-07 08:55:00,
2013-07-07 05:00:00,70.0,68.5,30.15,East,101,0.0,0.0,95,0.00,,,0.00,meteohub,2013-07-07 09:00:00,
2013-07-07 05:05:00,70.0,68.5,30.15,East,101,0.0,0.0,95,0.00,,,0.00,meteohub,2013-07-07 09:05:00,
2013-07-07 05:11:00,70.0,68.5,30.15,East,101,0.0,0.0,95,0.00,,,0.00,meteohub,2013-07-07 09:11:00,
2013-07-07 05:16:00,70.0,68.7,30.15,East,101,0.0,0.0,96,0.00,,,0.00,meteohub,2013-07-07 09:16:00,
2013-07-07 05:21:00,69.8,68.5,30.15,East,101,0.0,0.0,96,0.00,,,0.00,meteohub,2013-07-07 09:21:00,
2013-07-07 05:26:00,69.8,68.5,30.15,East,101,0.0,0.0,96,0.00,,,0.00,meteohub,2013-07-07 09:26:00,
2013-07-07 05:31:00,69.8,68.5,30.15,East,101,0.0,0.0,96,0.00,,,0.00,meteohub,2013-07-07 09:31:00,
2013-07-07 05:36:00,69.6,68.4,30.15,East,101,0.0,0.0,96,0.00,,,0.00,meteohub,2013-07-07 09:36:00,
2013-07-07 05:42:00,69.6,68.4,30.15,East,101,0.0,0.0,96,0.00,,,0.00,meteohub,2013-07-07 09:42:00,
2013-07-07 05:47:00,69.6,68.4,30.15,East,101,0.0,0.0,96,0.00,,,0.00,meteohub,2013-07-07 09:47:00,
2013-07-07 05:52:00,69.6,68.4,30.15,East,101,0.0,0.0,96,0.00,,,0.00,meteohub,2013-07-07 09:52:00,
2013-07-07 05:57:00,69.6,68.4,30.15,East,101,0.0,0.0,96,0.00,,,0.00,meteohub,2013-07-07 09:57:00,
2013-07-07 06:02:00,69.6,68.4,30.16,East,101,0.0,0.0,96,0.00,,,0.00,meteohub,2013-07-07 10:02:00,
2013-07-07 06:07:00,69.4,68.2,30.16,East,101,0.0,0.0,96,0.00,,,0.00,meteohub,2013-07-07 10:07:00,
2013-07-07 06:12:00,69.4,68.2,30.16,East,101,0.0,0.0,96,0.00,,,0.00,meteohub,2013-07-07 10:12:00,
2013-07-07 06:17:00,69.4,68.5,30.16,East,101,0.0,0.0,97,0.00,,,0.00,meteohub,2013-07-07 10:17:00,
2013-07-07 06:22:00,69.4,68.5,30.17,East,101,0.0,0.0,97,0.00,,,0.00,meteohub,2013-07-07 10:22:00,
2013-07-07 06:27:00,69.4,68.5,30.17,East,101,0.0,0.0,97,0.00,,,0.00,meteohub,2013-07-07 10:27:00,
2013-07-07 06:32:00,69.4,68.5,30.17,East,101,0.0,0.0,97,0.00,,,0.00,meteohub,2013-07-07 10:32:00,
2013-07-07 06:37:00,69.4,68.5,30.17,East,101,0.0,0.0,97,0.00,,,0.00,meteohub,2013-07-07 10:37:00,
2013-07-07 06:42:00,69.4,68.5,30.17,East,101,0.0,0.0,97,0.00,,,0.00,meteohub,2013-07-07 10:42:00,
2013-07-07 06:47:00,69.6,68.7,30.17,East,101,0.0,0.0,97,0.00,,,0.00,meteohub,2013-07-07 10:47:00,
2013-07-07 06:52:00,69.6,68.7,30.17,East,101,0.0,0.0,97,0.00,,,0.00,meteohub,2013-07-07 10:52:00,
2013-07-07 06:57:00,69.6,68.7,30.17,East,101,0.0,0.0,97,0.00,,,0.00,meteohub,2013-07-07 10:57:00,
2013-07-07 07:02:00,70.0,69.1,30.17,East,101,0.0,0.0,97,0.00,,,0.00,meteohub,2013-07-07 11:02:00,
2013-07-07 07:07:00,70.0,69.1,30.17,East,101,0.0,0.0,97,0.00,,,0.00,meteohub,2013-07-07 11:07:00,
2013-07-07 07:12:00,70.2,69.3,30.17,East,101,0.0,0.0,97,0.00,,,0.00,meteohub,2013-07-07 11:12:00,
2013-07-07 07:17:00,70.3,69.4,30.17,East,101,0.0,0.0,97,0.00,,,0.00,meteohub,2013-07-07 11:17:00,
2013-07-07 07:22:00,70.5,69.6,30.17,East,101,0.0,0.0,97,0.00,,,0.00,meteohub,2013-07-07 11:22:00,
2013-07-07 07:27:00,70.7,69.8,30.17,East,101,0.0,0.0,97,0.00,,,0.00,meteohub,2013-07-07 11:27:00,
2013-07-07 07:32:00,70.9,69.6,30.17,East,101,0.0,0.0,96,0.00,,,0.00,meteohub,2013-07-07 11:32:00,
2013-07-07 07:37:00,71.1,69.8,30.17,East,101,0.0,0.0,96,0.00,,,0.00,meteohub,2013-07-07 11:37:00,
2013-07-07 07:42:00,71.4,70.2,30.17,East,101,0.0,0.0,96,0.00,,,0.00,meteohub,2013-07-07 11:42:00,
2013-07-07 07:47:00,71.4,70.2,30.17,South,171,0.0,0.0,96,0.00,,,0.00,meteohub,2013-07-07 11:47:00,
2013-07-07 07:52:00,71.8,70.5,30.17,South,189,0.0,0.0,96,0.00,,,0.00,meteohub,2013-07-07 11:52:00,
2013-07-07 07:57:00,71.8,70.5,30.17,South,189,0.0,0.0,96,0.00,,,0.00,meteohub,2013-07-07 11:57:00,
2013-07-07 08:02:00,72.0,70.7,30.17,South,189,0.0,0.0,96,0.00,,,0.00,meteohub,2013-07-07 12:02:00,
2013-07-07 08:07:00,72.3,71.1,30.17,South,189,0.0,0.0,96,0.00,,,0.00,meteohub,2013-07-07 12:07:00,
2013-07-07 08:12:00,72.3,70.9,30.17,South,190,0.0,0.0,95,0.00,,,0.00,meteohub,2013-07-07 12:12:00,
2013-07-07 08:17:00,72.5,71.1,30.17,SSW,194,0.0,0.0,95,0.00,,,0.00,meteohub,2013-07-07 12:17:00,
2013-07-07 08:22:00,72.9,71.4,30.17,SSW,194,0.0,0.0,95,0.00,,,0.00,meteohub,2013-07-07 12:22:00,
2013-07-07 08:27:00,73.0,71.6,30.17,SSW,194,0.0,0.0,95,0.00,,,0.00,meteohub,2013-07-07 12:27:00,
2013-07-07 08:32:00,73.2,71.4,30.17,SW,232,0.0,0.0,94,0.00,,,0.00,meteohub,2013-07-07 12:32:00,
2013-07-07 08:37:00,73.4,71.6,30.17,SW,228,0.0,0.0,94,0.00,,,0.00,meteohub,2013-07-07 12:37:00,
2013-07-07 08:42:00,73.6,71.8,30.17,SW,228,0.0,0.0,94,0.00,,,0.00,meteohub,2013-07-07 12:42:00,
2013-07-07 08:47:00,73.8,72.0,30.17,SW,228,0.0,0.0,94,0.00,,,0.00,meteohub,2013-07-07 12:47:00,
2013-07-07 08:52:00,73.9,71.8,30.18,WSW,249,0.0,0.0,93,0.00,,,0.00,meteohub,2013-07-07 12:52:00,
2013-07-07 08:57:00,74.1,72.0,30.18,SSW,209,0.0,0.0,93,0.00,,,0.00,meteohub,2013-07-07 12:57:00,
2013-07-07 09:02:00,74.5,72.3,30.18,SSW,209,0.0,0.0,93,0.00,,,0.00,meteohub,2013-07-07 13:02:00,
2013-07-07 09:07:00,74.7,72.5,30.17,SSW,209,0.0,0.0,93,0.00,,,0.00,meteohub,2013-07-07 13:07:00,
2013-07-07 09:12:00,74.8,72.3,30.17,SSW,209,0.0,0.0,92,0.00,,,0.00,meteohub,2013-07-07 13:12:00,
2013-07-07 09:17:00,74.8,72.3,30.18,WSW,240,0.0,0.0,92,0.00,,,0.00,meteohub,2013-07-07 13:17:00,
2013-07-07 09:22:00,75.0,72.5,30.17,WSW,240,0.0,0.0,92,0.00,,,0.00,meteohub,2013-07-07 13:22:00,
2013-07-07 09:27:00,75.4,72.5,30.18,WNW,294,0.0,0.0,91,0.00,,,0.00,meteohub,2013-07-07 13:27:00,
2013-07-07 09:32:00,75.7,72.9,30.18,WSW,257,0.0,0.0,91,0.00,,,0.00,meteohub,2013-07-07 13:32:00,
2013-07-07 09:37:00,75.9,73.0,30.18,NNW,331,0.0,0.0,91,0.00,,,0.00,meteohub,2013-07-07 13:37:00,
2013-07-07 09:42:00,75.7,72.7,30.18,NW,308,0.0,1.0,90,0.00,,,0.00,meteohub,2013-07-07 13:42:00,
2013-07-07 09:47:00,75.6,72.5,30.17,WSW,240,0.0,3.0,90,0.00,,,0.00,meteohub,2013-07-07 13:47:00,
2013-07-07 09:52:00,75.6,72.5,30.17,West,277,0.0,3.0,90,0.00,,,0.00,meteohub,2013-07-07 13:52:00,
2013-07-07 09:57:00,75.7,72.7,30.17,WSW,238,3.0,3.0,90,0.00,,,0.00,meteohub,2013-07-07 13:57:00,
2013-07-07 10:02:00,75.7,72.7,30.17,SW,214,3.0,5.0,90,0.00,,,0.00,meteohub,2013-07-07 14:02:00,
2013-07-07 10:07:00,76.3,72.9,30.17,North,11,0.0,5.0,89,0.00,,,0.00,meteohub,2013-07-07 14:07:00,
2013-07-07 10:12:00,76.5,73.0,30.17,NW,315,3.0,5.0,89,0.00,,,0.00,meteohub,2013-07-07 14:12:00,
2013-07-07 10:17:00,76.6,72.9,30.17,WNW,297,1.0,5.0,88,0.00,,,0.00,meteohub,2013-07-07 14:17:00,
2013-07-07 10:22:00,77.2,73.4,30.17,WSW,243,1.0,5.0,88,0.00,,,0.00,meteohub,2013-07-07 14:22:00,
2013-07-07 10:27:00,77.5,73.4,30.17,ESE,119,0.0,5.0,87,0.00,,,0.00,meteohub,2013-07-07 14:27:00,
2013-07-07 10:32:00,77.7,73.2,30.17,NW,315,0.0,4.0,86,0.00,,,0.00,meteohub,2013-07-07 14:32:00,
2013-07-07 10:37:00,77.5,72.7,30.17,West,263,0.0,3.0,85,0.00,,,0.00,meteohub,2013-07-07 14:37:00,
2013-07-07 10:42:00,77.4,72.5,30.17,NW,319,0.0,3.0,85,0.00,,,0.00,meteohub,2013-07-07 14:42:00,
2013-07-07 10:47:00,77.4,72.5,30.17,SSW,192,0.0,5.0,85,0.00,,,0.00,meteohub,2013-07-07 14:47:00,
2013-07-07 10:52:00,77.7,72.9,30.17,SW,229,0.0,5.0,85,0.00,,,0.00,meteohub,2013-07-07 14:52:00,
2013-07-07 10:57:00,78.4,73.2,30.17,NW,314,0.0,5.0,84,0.00,,,0.00,meteohub,2013-07-07 14:57:00,
2013-07-07 11:02:00,78.1,72.9,30.17,South,173,0.0,5.0,84,0.00,,,0.00,meteohub,2013-07-07 15:02:00,
2013-07-07 11:07:00,77.7,72.9,30.17,WSW,244,0.0,5.0,85,0.00,,,0.00,meteohub,2013-07-07 15:07:00,
2013-07-07 11:12:00,78.3,73.0,30.17,SW,221,1.0,2.0,84,0.00,,,0.00,meteohub,2013-07-07 15:12:00,
2013-07-07 11:17:00,78.4,72.9,30.17,NNE,14,0.0,3.0,83,0.00,,,0.00,meteohub,2013-07-07 15:17:00,
2013-07-07 11:22:00,78.4,73.2,30.17,SSW,198,1.0,3.0,84,0.00,,,0.00,meteohub,2013-07-07 15:22:00,
2013-07-07 11:27:00,78.4,72.9,30.17,WSW,241,1.0,3.0,83,0.00,,,0.00,meteohub,2013-07-07 15:27:00,
2013-07-07 11:32:00,79.2,73.2,30.17,SW,218,2.0,2.0,82,0.00,,,0.00,meteohub,2013-07-07 15:32:00,
2013-07-07 11:37:00,79.2,73.2,30.17,SW,215,1.0,3.0,82,0.00,,,0.00,meteohub,2013-07-07 15:37:00,
2013-07-07 11:42:00,79.3,73.8,30.17,SSW,201,0.0,3.0,83,0.00,,,0.00,meteohub,2013-07-07 15:42:00,
2013-07-07 11:47:00,79.3,74.1,30.17,WSW,242,0.0,3.0,84,0.00,,,0.00,meteohub,2013-07-07 15:47:00,
2013-07-07 11:52:00,79.3,73.8,30.17,South,189,0.0,2.0,83,0.00,,,0.00,meteohub,2013-07-07 15:52:00,
2013-07-07 11:57:00,79.3,73.8,30.17,South,188,0.0,2.0,83,0.00,,,0.00,meteohub,2013-07-07 15:57:00,
2013-07-07 12:02:00,79.3,73.8,30.17,West,259,2.0,2.0,83,0.00,,,0.00,meteohub,2013-07-07 16:02:00,
2013-07-07 12:07:00,79.3,73.4,30.17,SSW,210,0.0,2.0,82,0.00,,,0.00,meteohub,2013-07-07 16:07:00,
2013-07-07 12:12:00,79.5,73.9,30.17,WSW,241,0.0,3.0,83,0.00,,,0.00,meteohub,2013-07-07 16:12:00,
2013-07-07 12:17:00,80.6,74.3,30.16,SE,145,0.0,3.0,81,0.00,,,0.00,meteohub,2013-07-07 16:17:00,
2013-07-07 12:22:00,81.0,73.0,30.16,SW,220,0.0,5.0,77,0.00,,,0.00,meteohub,2013-07-07 16:22:00,
2013-07-07 12:27:00,81.0,73.0,30.16,South,180,0.0,5.0,77,0.00,,,0.00,meteohub,2013-07-07 16:27:00,
2013-07-07 12:32:00,81.0,74.1,30.16,South,171,0.0,5.0,80,0.00,,,0.00,meteohub,2013-07-07 16:32:00,
2013-07-07 12:37:00,81.7,73.8,30.16,West,281,0.0,5.0,77,0.00,,,0.00,meteohub,2013-07-07 16:37:00,
2013-07-07 12:42:00,81.7,74.1,30.15,WNW,285,0.0,5.0,78,0.00,,,0.00,meteohub,2013-07-07 16:42:00,
2013-07-07 12:47:00,81.3,74.1,30.16,West,279,1.0,5.0,79,0.00,,,0.00,meteohub,2013-07-07 16:47:00,
2013-07-07 12:52:00,81.5,73.9,30.15,WSW,242,0.0,3.0,78,0.00,,,0.00,meteohub,2013-07-07 16:52:00,
2013-07-07 12:57:00,82.0,74.1,30.15,SE,144,0.0,3.0,77,0.00,,,0.00,meteohub,2013-07-07 16:57:00,
2013-07-07 13:02:00,82.6,75.0,30.15,WSW,239,1.0,3.0,78,0.00,,,0.00,meteohub,2013-07-07 17:02:00,
2013-07-07 13:07:00,82.4,74.1,30.15,ESE,113,2.0,4.0,76,0.00,,,0.00,meteohub,2013-07-07 17:07:00,
2013-07-07 13:12:00,82.0,74.8,30.15,ESE,110,0.0,4.0,79,0.00,,,0.00,meteohub,2013-07-07 17:12:00,
2013-07-07 13:17:00,82.8,75.2,30.14,WNW,288,0.0,3.0,78,0.00,,,0.00,meteohub,2013-07-07 17:17:00,
2013-07-07 13:22:00,83.1,74.8,30.14,South,171,1.0,4.0,76,0.00,,,0.00,meteohub,2013-07-07 17:22:00,
2013-07-07 13:27:00,82.8,73.9,30.14,SW,217,0.0,4.0,75,0.00,,,0.00,meteohub,2013-07-07 17:27:00,
2013-07-07 13:32:00,82.0,74.5,30.14,SW,231,0.0,4.0,78,0.00,,,0.00,meteohub,2013-07-07 17:32:00,
2013-07-07 13:37:00,81.9,73.9,30.14,SSW,203,0.0,3.0,77,0.00,,,0.00,meteohub,2013-07-07 17:37:00,
2013-07-07 13:42:00,82.0,74.5,30.14,WSW,242,0.0,1.0,78,0.00,,,0.00,meteohub,2013-07-07 17:42:00,
2013-07-07 13:47:00,82.2,74.3,30.14,SE,143,0.0,4.0,77,0.00,,,0.00,meteohub,2013-07-07 17:47:00,
2013-07-07 13:52:00,81.9,74.3,30.13,South,185,1.0,4.0,78,0.00,,,0.00,meteohub,2013-07-07 17:52:00,
2013-07-07 13:57:00,81.9,74.7,30.13,SSE,157,0.0,4.0,79,0.00,,,0.00,meteohub,2013-07-07 17:57:00,
2013-07-07 14:02:00,83.1,75.6,30.13,NE,39,0.0,2.0,78,0.00,,,0.00,meteohub,2013-07-07 18:02:00,
2013-07-07 14:07:00,83.5,74.3,30.13,South,190,3.0,3.0,74,0.00,,,0.00,meteohub,2013-07-07 18:07:00,
2013-07-07 14:12:00,83.7,74.8,30.13,SW,222,0.0,3.0,75,0.00,,,0.00,meteohub,2013-07-07 18:12:00,
2013-07-07 14:17:00,83.1,74.8,30.13,SW,223,0.0,3.0,76,0.00,,,0.00,meteohub,2013-07-07 18:17:00,
2013-07-07 14:22:00,82.6,74.7,30.13,SSW,207,0.0,3.0,77,0.00,,,0.00,meteohub,2013-07-07 18:22:00,
2013-07-07 14:27:00,83.1,74.8,30.12,ESE,111,0.0,2.0,76,0.00,,,0.00,meteohub,2013-07-07 18:27:00,
2013-07-07 14:32:00,83.1,74.8,30.12,SSE,161,0.0,2.0,76,0.00,,,0.00,meteohub,2013-07-07 18:32:00,
2013-07-07 14:37:00,83.5,75.0,30.12,WNW,282,2.0,2.0,76,0.00,,,0.00,meteohub,2013-07-07 18:37:00,
2013-07-07 14:42:00,84.0,74.5,30.12,SSW,206,0.0,3.0,73,0.00,,,0.00,meteohub,2013-07-07 18:42:00,
2013-07-07 14:47:00,83.3,74.5,30.12,ESE,111,0.0,3.0,75,0.00,,,0.00,meteohub,2013-07-07 18:47:00,
2013-07-07 14:52:00,82.8,75.2,30.12,East,92,0.0,3.0,78,0.00,,,0.00,meteohub,2013-07-07 18:52:00,
2013-07-07 14:57:00,82.6,75.0,30.11,ESE,111,0.0,3.0,78,0.00,,,0.00,meteohub,2013-07-07 18:57:00,
2013-07-07 15:02:00,82.6,75.0,30.11,ENE,64,0.0,1.0,78,0.00,,,0.00,meteohub,2013-07-07 19:02:00,
2013-07-07 15:07:00,83.7,74.8,30.11,NNE,21,0.0,2.0,75,0.00,,,0.00,meteohub,2013-07-07 19:07:00,
2013-07-07 15:12:00,84.2,75.0,30.11,WSW,252,0.0,3.0,74,0.00,,,0.00,meteohub,2013-07-07 19:12:00,
2013-07-07 15:17:00,84.4,75.6,30.11,SSE,163,0.0,3.0,75,0.00,,,0.00,meteohub,2013-07-07 19:17:00,
2013-07-07 15:22:00,83.5,75.6,30.11,SSE,163,0.0,3.0,77,0.00,,,0.00,meteohub,2013-07-07 19:22:00,
2013-07-07 15:27:00,82.8,75.6,30.11,SSE,163,0.0,3.0,79,0.00,,,0.00,meteohub,2013-07-07 19:27:00,
2013-07-07 15:32:00,82.2,74.7,30.10,SSE,163,0.0,2.0,78,0.00,,,0.00,meteohub,2013-07-07 19:32:00,
2013-07-07 15:37:00,82.6,75.0,30.10,SSE,163,0.0,1.0,78,0.00,,,0.00,meteohub,2013-07-07 19:37:00,
2013-07-07 15:42:00,83.7,75.7,30.10,North,10,0.0,1.0,77,0.00,,,0.00,meteohub,2013-07-07 19:42:00,
2013-07-07 15:47:00,84.0,74.5,30.10,WNW,291,2.0,2.0,73,0.00,,,0.00,meteohub,2013-07-07 19:47:00,
2013-07-07 15:52:00,84.0,75.2,30.10,ESE,117,0.0,3.0,75,0.00,,,0.00,meteohub,2013-07-07 19:52:00,
2013-07-07 15:57:00,83.5,75.0,30.10,SSE,164,0.0,3.0,76,0.00,,,0.00,meteohub,2013-07-07 19:57:00,
2013-07-07 16:02:00,83.5,75.0,30.09,South,176,0.0,3.0,76,0.00,,,0.00,meteohub,2013-07-07 20:02:00,
2013-07-07 16:07:00,83.5,75.0,30.09,SE,143,0.0,2.0,76,0.00,,,0.00,meteohub,2013-07-07 20:07:00,
2013-07-07 16:12:00,83.3,75.0,30.09,SE,143,0.0,2.0,76,0.00,,,0.00,meteohub,2013-07-07 20:12:00,
2013-07-07 16:17:00,82.9,75.4,30.09,WNW,296,0.0,1.0,78,0.00,,,0.00,meteohub,2013-07-07 20:17:00,
2013-07-07 16:22:00,82.0,74.8,30.09,NW,312,0.0,2.0,79,0.00,,,0.00,meteohub,2013-07-07 20:22:00,
2013-07-07 16:27:00,81.0,75.7,30.09,NW,312,0.0,4.0,84,0.01,,,0.01,meteohub,2013-07-07 20:27:00,
2013-07-07 16:32:00,80.1,76.1,30.09,NW,312,0.0,4.0,88,0.01,,,0.01,meteohub,2013-07-07 20:32:00,
2013-07-07 16:37:00,80.4,76.1,30.09,NW,312,0.0,3.0,87,0.01,,,0.01,meteohub,2013-07-07 20:37:00,
2013-07-07 16:42:00,81.1,76.8,30.08,NW,312,0.0,1.0,87,0.01,,,0.01,meteohub,2013-07-07 20:42:00,
2013-07-07 16:47:00,81.7,76.6,30.08,NW,312,0.0,1.0,85,0.01,,,0.01,meteohub,2013-07-07 20:47:00,
2013-07-07 16:52:00,82.2,76.1,30.08,NW,312,0.0,0.0,82,0.01,,,0.01,meteohub,2013-07-07 20:52:00,
2013-07-07 16:57:00,82.9,76.8,30.07,West,263,0.0,1.0,82,0.01,,,0.01,meteohub,2013-07-07 20:57:00,
2013-07-07 17:02:00,83.1,75.9,30.07,WSW,258,0.0,2.0,79,0.01,,,0.01,meteohub,2013-07-07 21:02:00,
2013-07-07 17:07:00,83.7,76.5,30.07,WNW,293,0.0,2.0,79,0.01,,,0.01,meteohub,2013-07-07 21:07:00,
2013-07-07 17:12:00,83.8,77.0,30.06,West,279,0.0,2.0,80,0.01,,,0.01,meteohub,2013-07-07 21:12:00,
2013-07-07 17:17:00,83.7,76.1,30.07,NNW,330,1.0,2.0,78,0.01,,,0.01,meteohub,2013-07-07 21:17:00,
2013-07-07 17:22:00,83.7,76.1,30.06,SSW,202,0.0,2.0,78,0.00,,,0.01,meteohub,2013-07-07 21:22:00,
2013-07-07 17:27:00,84.0,76.5,30.06,WNW,300,0.0,2.0,78,0.00,,,0.01,meteohub,2013-07-07 21:27:00,
2013-07-07 17:32:00,83.8,75.4,30.06,WSW,250,1.0,2.0,76,0.00,,,0.01,meteohub,2013-07-07 21:32:00,
2013-07-07 17:37:00,83.3,75.4,30.06,West,269,0.0,3.0,77,0.00,,,0.01,meteohub,2013-07-07 21:37:00,
2013-07-07 17:42:00,82.9,75.7,30.06,WNW,297,0.0,3.0,79,0.00,,,0.01,meteohub,2013-07-07 21:42:00,
2013-07-07 17:47:00,82.8,75.6,30.06,WNW,296,0.0,3.0,79,0.00,,,0.01,meteohub,2013-07-07 21:47:00,
2013-07-07 17:52:00,82.8,75.6,30.06,WNW,296,0.0,1.0,79,0.00,,,0.01,meteohub,2013-07-07 21:52:00,
2013-07-07 17:57:00,82.6,75.4,30.06,WNW,296,0.0,1.0,79,0.00,,,0.01,meteohub,2013-07-07 21:57:00,
2013-07-07 18:02:00,82.6,75.0,30.06,West,280,0.0,1.0,78,0.00,,,0.01,meteohub,2013-07-07 22:02:00,
2013-07-07 18:07:00,82.4,75.9,30.06,West,280,0.0,1.0,81,0.00,,,0.01,meteohub,2013-07-07 22:07:00,
2013-07-07 18:12:00,82.6,76.1,30.06,West,280,0.0,1.0,81,0.00,,,0.01,meteohub,2013-07-07 22:12:00,
2013-07-07 18:17:00,82.2,76.1,30.06,West,280,0.0,0.0,82,0.00,,,0.01,meteohub,2013-07-07 22:17:00,
2013-07-07 18:22:00,82.2,76.1,30.06,West,280,0.0,0.0,82,0.00,,,0.01,meteohub,2013-07-07 22:22:00,
2013-07-07 18:27:00,82.4,75.9,30.06,West,280,0.0,0.0,81,0.00,,,0.01,meteohub,2013-07-07 22:27:00,
2013-07-07 18:32:00,82.6,75.7,30.06,West,280,0.0,0.0,80,0.00,,,0.01,meteohub,2013-07-07 22:32:00,
2013-07-07 18:37:00,82.6,75.7,30.06,NNW,333,0.0,0.0,80,0.00,,,0.01,meteohub,2013-07-07 22:37:00,
2013-07-07 18:42:00,82.2,75.7,30.06,NNW,333,0.0,0.0,81,0.00,,,0.01,meteohub,2013-07-07 22:42:00,
2013-07-07 18:47:00,82.0,75.2,30.06,NNW,333,0.0,0.0,80,0.00,,,0.01,meteohub,2013-07-07 22:47:00,
2013-07-07 18:52:00,81.9,75.4,30.06,NNW,333,0.0,0.0,81,0.00,,,0.01,meteohub,2013-07-07 22:52:00,
2013-07-07 18:57:00,81.7,75.6,30.06,NNW,333,0.0,0.0,82,0.00,,,0.01,meteohub,2013-07-07 22:57:00,
2013-07-07 19:02:00,81.7,75.6,30.06,NNW,333,0.0,0.0,82,0.00,,,0.01,meteohub,2013-07-07 23:02:00,
2013-07-07 19:07:00,81.7,75.9,30.06,NNW,333,0.0,0.0,83,0.00,,,0.01,meteohub,2013-07-07 23:07:00,
2013-07-07 19:12:00,81.5,75.4,30.06,NNW,333,0.0,0.0,82,0.00,,,0.01,meteohub,2013-07-07 23:12:00,
2013-07-07 19:17:00,81.7,75.6,30.06,NNW,333,0.0,0.0,82,0.00,,,0.01,meteohub,2013-07-07 23:17:00,
2013-07-07 19:22:00,81.7,75.6,30.06,NNW,333,0.0,0.0,82,0.00,,,0.01,meteohub,2013-07-07 23:22:00,
2013-07-07 19:27:00,81.3,75.7,30.07,NNW,333,0.0,0.0,83,0.00,,,0.01,meteohub,2013-07-07 23:27:00,
2013-07-07 19:32:00,81.1,75.6,30.07,NNW,333,0.0,0.0,83,0.00,,,0.01,meteohub,2013-07-07 23:32:00,
2013-07-07 19:37:00,81.1,75.9,30.07,NNW,333,0.0,0.0,84,0.00,,,0.01,meteohub,2013-07-07 23:37:00,
2013-07-07 19:42:00,81.0,75.7,30.06,NNW,333,0.0,0.0,84,0.00,,,0.01,meteohub,2013-07-07 23:42:00,
2013-07-07 19:47:00,81.0,75.7,30.06,NNW,333,0.0,0.0,84,0.00,,,0.01,meteohub,2013-07-07 23:47:00,
2013-07-07 19:52:00,80.8,75.6,30.07,NNW,333,0.0,0.0,84,0.00,,,0.01,meteohub,2013-07-07 23:52:00,
2013-07-07 19:57:00,80.8,75.6,30.07,NNW,333,0.0,0.0,84,0.00,,,0.01,meteohub,2013-07-07 23:57:00,
2013-07-07 20:02:00,80.4,75.2,30.07,NNW,333,0.0,0.0,84,0.00,,,0.01,meteohub,2013-07-08 00:02:00,
2013-07-07 20:07:00,80.4,75.2,30.07,NNW,333,0.0,0.0,84,0.00,,,0.01,meteohub,2013-07-08 00:07:00,
2013-07-07 20:12:00,80.4,75.2,30.07,NNW,333,0.0,0.0,84,0.00,,,0.01,meteohub,2013-07-08 00:12:00,
2013-07-07 20:17:00,80.4,75.2,30.07,NNW,333,0.0,0.0,84,0.00,,,0.01,meteohub,2013-07-08 00:17:00,
2013-07-07 20:22:00,80.4,75.2,30.08,NNW,333,0.0,0.0,84,0.00,,,0.01,meteohub,2013-07-08 00:22:00,
2013-07-07 20:27:00,80.4,75.2,30.07,NNW,333,0.0,0.0,84,0.00,,,0.01,meteohub,2013-07-08 00:27:00,
2013-07-07 20:32:00,80.4,75.2,30.08,NNW,333,0.0,0.0,84,0.00,,,0.01,meteohub,2013-07-08 00:32:00,
2013-07-07 20:37:00,80.4,75.2,30.08,NNW,333,0.0,0.0,84,0.00,,,0.01,meteohub,2013-07-08 00:37:00,
2013-07-07 20:42:00,80.2,75.0,30.08,NNW,333,0.0,0.0,84,0.00,,,0.01,meteohub,2013-07-08 00:42:00,
2013-07-07 20:47:00,80.2,75.0,30.08,NNW,333,0.0,0.0,84,0.00,,,0.01,meteohub,2013-07-08 00:47:00,
2013-07-07 20:52:00,80.2,75.0,30.09,NNW,333,0.0,0.0,84,0.00,,,0.01,meteohub,2013-07-08 00:52:00,
2013-07-07 20:57:00,80.2,75.0,30.09,NNW,333,0.0,0.0,84,0.00,,,0.01,meteohub,2013-07-08 00:57:00,
2013-07-07 21:02:00,80.1,74.8,30.09,NNW,333,0.0,0.0,84,0.00,,,0.01,meteohub,2013-07-08 01:02:00,
2013-07-07 21:07:00,80.1,75.2,30.10,WNW,284,0.0,2.0,85,0.00,,,0.01,meteohub,2013-07-08 01:07:00,
2013-07-07 21:12:00,79.9,74.7,30.10,WSW,238,1.0,2.0,84,0.00,,,0.01,meteohub,2013-07-08 01:12:00,
2013-07-07 21:17:00,79.3,72.3,30.10,WNW,300,1.0,3.0,79,0.00,,,0.01,meteohub,2013-07-08 01:17:00,
2013-07-07 21:22:00,78.4,72.5,30.11,West,265,2.0,8.0,82,0.01,,,0.02,meteohub,2013-07-08 01:22:00,
2013-07-07 21:27:00,77.7,72.5,30.11,NNE,32,0.0,8.0,84,0.01,,,0.02,meteohub,2013-07-08 01:27:00,
2013-07-07 21:32:00,77.0,72.1,30.11,NW,313,0.0,8.0,85,0.05,,,0.06,meteohub,2013-07-08 01:32:00,
2013-07-07 21:37:00,76.3,72.1,30.11,North,355,0.0,5.0,87,0.06,,,0.07,meteohub,2013-07-08 01:37:00,
2013-07-07 21:42:00,75.6,71.8,30.11,North,355,0.0,2.0,88,0.06,,,0.07,meteohub,2013-07-08 01:42:00,
2013-07-07 21:47:00,75.4,72.0,30.12,North,355,0.0,2.0,89,0.06,,,0.07,meteohub,2013-07-08 01:47:00,
2013-07-07 21:52:00,75.0,72.0,30.12,North,355,0.0,1.0,90,0.06,,,0.07,meteohub,2013-07-08 01:52:00,
2013-07-07 21:57:00,74.8,72.0,30.12,North,351,0.0,1.0,91,0.06,,,0.07,meteohub,2013-07-08 01:57:00,
2013-07-07 22:02:00,74.7,71.8,30.12,North,351,0.0,1.0,91,0.06,,,0.07,meteohub,2013-07-08 02:02:00,
2013-07-07 22:07:00,74.5,72.0,30.12,North,351,0.0,1.0,92,0.06,,,0.07,meteohub,2013-07-08 02:07:00,
2013-07-07 22:12:00,74.1,72.0,30.12,NNW,339,0.0,0.0,93,0.06,,,0.07,meteohub,2013-07-08 02:12:00,
2013-07-07 22:17:00,73.9,71.8,30.12,NNW,339,0.0,0.0,93,0.06,,,0.07,meteohub,2013-07-08 02:17:00,
2013-07-07 22:22:00,73.8,71.2,30.12,NW,313,0.0,0.0,92,0.05,,,0.07,meteohub,2013-07-08 02:22:00,
2013-07-07 22:27:00,73.6,71.4,30.12,NW,313,0.0,0.0,93,0.03,,,0.07,meteohub,2013-07-08 02:27:00,
2013-07-07 22:32:00,73.6,71.4,30.11,NW,313,0.0,0.0,93,0.01,,,0.07,meteohub,2013-07-08 02:32:00,
2013-07-07 22:37:00,73.4,71.6,30.12,NW,313,0.0,0.0,94,0.00,,,0.07,meteohub,2013-07-08 02:37:00,
2013-07-07 22:42:00,73.2,71.4,30.12,NW,313,0.0,0.0,94,0.00,,,0.07,meteohub,2013-07-08 02:42:00,
2013-07-07 22:47:00,73.2,71.8,30.13,NW,313,3.0,0.0,95,0.00,,,0.07,meteohub,2013-07-08 02:47:00,
2013-07-07 22:52:00,73.2,71.8,30.13,NW,316,0.0,4.0,95,0.00,,,0.07,meteohub,2013-07-08 02:52:00,
2013-07-07 22:57:00,73.0,71.6,30.13,NW,316,1.0,4.0,95,0.00,,,0.07,meteohub,2013-07-08 02:57:00,
2013-07-07 23:02:00,73.0,71.6,30.12,NW,315,0.0,4.0,95,0.00,,,0.07,meteohub,2013-07-08 03:02:00,
2013-07-07 23:07:00,72.9,71.4,30.12,NW,315,0.0,3.0,95,0.00,,,0.07,meteohub,2013-07-08 03:07:00,
2013-07-07 23:12:00,72.9,71.4,30.12,NW,306,1.0,2.0,95,0.00,,,0.07,meteohub,2013-07-08 03:12:00,
2013-07-07 23:17:00,72.9,71.4,30.14,WNW,293,2.0,3.0,95,0.00,,,0.07,meteohub,2013-07-08 03:17:00,
2013-07-07 23:22:00,72.7,71.2,30.14,WNW,297,0.0,3.0,95,0.01,,,0.08,meteohub,2013-07-08 03:22:00,
2013-07-07 23:27:00,72.7,71.2,30.14,WNW,303,2.0,3.0,95,0.01,,,0.08,meteohub,2013-07-08 03:27:00,
2013-07-07 23:32:00,72.5,71.2,30.14,NW,304,2.0,4.0,96,0.01,,,0.08,meteohub,2013-07-08 03:32:00,
2013-07-07 23:37:00,72.3,71.1,30.13,NW,314,2.0,4.0,96,0.01,,,0.08,meteohub,2013-07-08 03:37:00,
2013-07-07 23:42:00,72.3,71.1,30.14,West,267,1.0,4.0,96,0.01,,,0.08,meteohub,2013-07-08 03:42:00,
2013-07-07 23:47:00,72.3,71.1,30.13,NW,306,2.0,4.0,96,0.01,,,0.08,meteohub,2013-07-08 03:47:00,
2013-07-07 23:52:00,72.3,71.4,30.13,NW,313,1.0,4.0,97,0.01,,,0.08,meteohub,2013-07-08 03:52:00,
2013-07-07 23:57:00,72.1,70.9,30.13,WNW,300,0.0,4.0,96,0.01,,,0.08,meteohub,2013-07-08 03:57:00,